Time;durP1;ratioP1;P1;durP2;ratioP2;P2;SDS_P1;SDS_P2;PMS_P1;PMS_P2;Temp;Humidity;BMP_temperature;BMP_pressure;BME280_temperature;BME280_humidity;BME280_pressure;Samples;Min_cycle;Max_cycle;Signal;HPM_P1;HPM_P2
2022/06/05 00:00:22;;;;;;;4.70;4.40;;;24.50;75.30;;;;;;4973143;28;20474;-75
2022/06/05 00:03:15;;;;;;;4.50;4.10;;;24.40;75.20;;;;;;4973506;28;20426;-75
2022/06/05 00:05:49;;;;;;;4.50;4.20;;;24.40;75.30;;;;;;4957024;28;20467;-74
2022/06/05 00:08:54;;;;;;;4.40;4.10;;;24.40;75.30;;;;;;4973303;28;20433;-74
2022/06/05 00:11:26;;;;;;;4.37;4.07;;;24.40;75.40;;;;;;4972406;28;20468;-74
2022/06/05 00:13:55;;;;;;;4.30;4.00;;;24.40;75.50;;;;;;4984257;28;20561;-74
2022/06/05 00:16:25;;;;;;;4.90;4.50;;;24.40;75.50;;;;;;4962414;28;20429;-74
2022/06/05 00:18:51;;;;;;;4.80;4.40;;;24.30;75.50;;;;;;4957280;28;20905;-74
2022/06/05 00:21:18;;;;;;;4.47;4.17;;;24.30;75.50;;;;;;4988612;28;20453;-74
2022/06/05 00:23:44;;;;;;;4.80;4.40;;;24.30;75.60;;;;;;4972071;28;20478;-74
2022/06/05 00:26:32;;;;;;;4.67;4.27;;;24.30;75.60;;;;;;4972457;28;20446;-74
2022/06/05 00:29:19;;;;;;;5.20;4.80;;;24.30;75.70;;;;;;4972153;28;20441;-74
2022/06/05 00:31:59;;;;;;;4.67;4.37;;;24.20;75.60;;;;;;4972346;28;20481;-74
2022/06/05 00:34:29;;;;;;;4.90;4.50;;;24.20;75.60;;;;;;4971084;28;20445;-74
2022/06/05 00:37:06;;;;;;;4.60;4.30;;;24.20;75.70;;;;;;4972353;28;20835;-74
2022/06/05 00:39:41;;;;;;;4.17;3.87;;;24.20;75.80;;;;;;4972501;28;20429;-74
2022/06/05 00:42:16;;;;;;;5.23;4.73;;;24.20;75.80;;;;;;4973154;28;20920;-74
2022/06/05 00:44:59;;;;;;;5.23;4.73;;;24.20;75.80;;;;;;4971887;28;20438;-74
2022/06/05 00:47:31;;;;;;;4.90;4.47;;;24.20;75.80;;;;;;4972363;28;20448;-74
2022/06/05 00:50:09;;;;;;;4.60;4.20;;;24.10;75.80;;;;;;4973344;28;20463;-74
2022/06/05 00:52:38;;;;;;;4.73;4.23;;;24.10;75.90;;;;;;4973134;28;20836;-74
2022/06/05 00:55:08;;;;;;;7.00;4.90;;;24.10;75.90;;;;;;4972372;28;20454;-74
2022/06/05 00:57:38;;;;;;;5.00;4.60;;;24.10;76.00;;;;;;4972494;28;20425;-74
2022/06/05 01:00:14;;;;;;;5.50;5.00;;;24.10;76.00;;;;;;4973114;28;20458;-74
2022/06/05 01:02:42;;;;;;;4.73;4.43;;;24.10;76.10;;;;;;4971738;28;20421;-74
2022/06/05 01:05:13;;;;;;;5.30;4.80;;;24.10;76.10;;;;;;4977185;28;20510;-74
2022/06/05 01:07:39;;;;;;;5.67;5.07;;;24.10;76.10;;;;;;4952817;29;20529;-75
2022/06/05 01:10:07;;;;;;;5.33;4.93;;;24.00;76.10;;;;;;4983595;28;20458;-74
2022/06/05 01:12:53;;;;;;;4.33;4.03;;;24.00;76.10;;;;;;4953608;29;20447;-74
2022/06/05 01:15:39;;;;;;;4.80;4.50;;;24.10;76.10;;;;;;4954046;28;20423;-74
2022/06/05 01:18:34;;;;;;;6.13;5.53;;;24.00;76.10;;;;;;4961671;28;20441;-74
2022/06/05 01:21:09;;;;;;;5.40;5.00;;;24.00;76.20;;;;;;4965285;28;20529;-74
2022/06/05 01:23:57;;;;;;;4.40;4.10;;;23.90;76.20;;;;;;4952799;28;20429;-74
2022/06/05 01:26:57;;;;;;;4.87;4.47;;;23.90;76.20;;;;;;4953818;28;20447;-74
2022/06/05 01:29:29;;;;;;;4.40;4.10;;;23.90;76.20;;;;;;4932622;29;20968;-74
2022/06/05 01:32:03;;;;;;;7.03;4.90;;;23.90;76.30;;;;;;4953680;28;20498;-75
2022/06/05 01:34:32;;;;;;;5.10;4.70;;;23.90;76.40;;;;;;4952932;28;21154;-74
2022/06/05 01:37:26;;;;;;;5.50;5.10;;;23.80;76.20;;;;;;4968607;28;20415;-74
2022/06/05 01:40:10;;;;;;;5.00;4.63;;;23.90;76.40;;;;;;4971719;28;20500;-74
2022/06/05 01:42:47;;;;;;;5.10;4.70;;;23.80;76.40;;;;;;4976482;28;20428;-74
2022/06/05 01:45:27;;;;;;;5.20;4.80;;;23.80;76.40;;;;;;4969412;28;20449;-74
2022/06/05 01:47:56;;;;;;;7.37;4.70;;;23.80;76.40;;;;;;4991900;28;20943;-74
2022/06/05 01:50:39;;;;;;;5.00;4.60;;;23.80;76.50;;;;;;4976605;28;20536;-74
2022/06/05 01:53:10;;;;;;;4.77;4.40;;;23.80;76.50;;;;;;4974895;28;20852;-74
2022/06/05 01:55:48;;;;;;;5.27;4.80;;;23.70;76.50;;;;;;4959111;28;20799;-74
2022/06/05 01:58:19;;;;;;;4.50;4.20;;;23.80;76.70;;;;;;4975464;28;20422;-74
2022/06/05 02:00:53;;;;;;;4.80;4.50;;;23.70;76.60;;;;;;4976114;28;20496;-74
2022/06/05 02:03:44;;;;;;;5.53;5.03;;;23.70;76.60;;;;;;4959047;28;20441;-75
2022/06/05 02:06:22;;;;;;;5.00;4.60;;;23.70;76.70;;;;;;4969829;28;20426;-74
2022/06/05 02:09:09;;;;;;;4.70;4.17;;;23.70;76.70;;;;;;4970838;28;20467;-74
2022/06/05 02:11:38;;;;;;;4.97;4.67;;;23.70;76.70;;;;;;4972657;28;20517;-74
2022/06/05 02:14:08;;;;;;;4.70;4.30;;;23.60;76.70;;;;;;4975904;28;20442;-74
2022/06/05 02:16:40;;;;;;;5.63;5.13;;;23.60;76.70;;;;;;4990081;28;20511;-74
2022/06/05 02:19:14;;;;;;;4.90;4.50;;;23.60;76.70;;;;;;4973408;28;20804;-74
2022/06/05 02:21:41;;;;;;;4.87;4.47;;;23.60;77.60;;;;;;4974655;28;20441;-74
2022/06/05 02:24:12;;;;;;;5.40;4.50;;;23.60;76.90;;;;;;4991105;28;20413;-74
2022/06/05 02:26:41;;;;;;;4.63;4.33;;;23.50;76.70;;;;;;4974799;28;20505;-74
2022/06/05 02:29:21;;;;;;;5.00;4.60;;;23.50;76.80;;;;;;4974821;28;20434;-74
2022/06/05 02:32:28;;;;;;;4.80;4.40;;;23.50;76.80;;;;;;4971489;28;20525;-74
2022/06/05 02:35:07;;;;;;;5.83;4.30;;;23.50;76.90;;;;;;4973137;28;20457;-74
2022/06/05 02:38:15;;;;;;;4.97;4.60;;;23.50;77.70;;;;;;4967679;28;20911;-74
2022/06/05 02:40:50;;;;;;;5.07;4.67;;;23.50;77.00;;;;;;4975219;28;20450;-74
2022/06/05 02:43:15;;;;;;;5.10;4.60;;;23.50;77.00;;;;;;4975723;28;20425;-74
2022/06/05 02:46:09;;;;;;;5.30;4.90;;;23.40;77.00;;;;;;4958968;28;20542;-74
2022/06/05 02:48:46;;;;;;;4.50;4.10;;;23.40;77.00;;;;;;4974456;28;20473;-74
2022/06/05 02:51:18;;;;;;;4.77;4.37;;;23.40;77.00;;;;;;4957720;28;20452;-74
2022/06/05 02:53:51;;;;;;;4.63;4.30;;;23.40;77.10;;;;;;4975144;28;20497;-74
2022/06/05 02:56:18;;;;;;;4.77;4.37;;;23.40;77.10;;;;;;4957877;28;20442;-75
2022/06/05 02:58:46;;;;;;;5.50;5.10;;;23.40;77.20;;;;;;4974070;28;20426;-74
2022/06/05 03:04:01;;;;;;;5.30;4.87;;;23.30;77.20;;;;;;4945086;29;20450;-74
2022/06/05 03:06:33;;;;;;;5.50;5.10;;;23.30;77.10;;;;;;4957522;28;20426;-74
2022/06/05 03:09:01;;;;;;;5.67;5.17;;;23.30;77.20;;;;;;4970659;28;20407;-74
2022/06/05 03:11:27;;;;;;;4.47;4.17;;;23.30;77.30;;;;;;4954898;29;20442;-74
2022/06/05 03:13:53;;;;;;;5.77;5.37;;;23.30;77.30;;;;;;4954635;29;20467;-74
2022/06/05 03:16:22;;;;;;;4.57;4.10;;;23.30;77.30;;;;;;4956026;28;20404;-74
2022/06/05 03:18:48;;;;;;;5.03;4.60;;;23.30;77.30;;;;;;4941159;28;20434;-74
2022/06/05 03:21:14;;;;;;;5.20;4.80;;;23.20;77.20;;;;;;4974005;28;20446;-74
2022/06/05 03:23:42;;;;;;;4.83;4.43;;;23.20;77.30;;;;;;4958032;28;20560;-74
2022/06/05 03:26:12;;;;;;;5.20;4.80;;;23.20;77.30;;;;;;4973993;28;20490;-71
2022/06/05 03:28:39;;;;;;;7.80;5.03;;;23.20;77.30;;;;;;4957954;28;20997;-71
2022/06/05 03:31:09;;;;;;;5.47;4.97;;;23.20;77.40;;;;;;4974759;28;21047;-72
2022/06/05 03:33:39;;;;;;;4.97;4.67;;;23.20;77.40;;;;;;4957812;28;20462;-71
2022/06/05 03:36:16;;;;;;;5.17;4.77;;;23.20;77.50;;;;;;4973965;28;20433;-72
2022/06/05 03:38:42;;;;;;;5.13;4.73;;;23.20;77.60;;;;;;4964859;28;20444;-71
2022/06/05 03:41:08;;;;;;;5.27;4.87;;;23.10;77.40;;;;;;4974414;28;20519;-71
2022/06/05 03:43:38;;;;;;;5.50;5.00;;;23.10;77.50;;;;;;4957150;28;20555;-72
2022/06/05 03:46:07;;;;;;;5.73;5.33;;;23.10;77.50;;;;;;4989952;28;20904;-72
2022/06/05 03:48:35;;;;;;;5.70;5.20;;;23.10;77.50;;;;;;4989086;28;20513;-72
2022/06/05 03:51:14;;;;;;;6.73;4.80;;;23.10;77.60;;;;;;4957081;28;20979;-71
2022/06/05 03:53:40;;;;;;;5.33;4.93;;;23.10;77.60;;;;;;4976416;28;20474;-71
2022/06/05 03:56:08;;;;;;;5.50;5.10;;;23.10;77.70;;;;;;4955350;28;20443;-71
2022/06/05 03:58:39;;;;;;;5.37;4.97;;;23.10;77.70;;;;;;4946344;28;20451;-71
2022/06/05 04:01:09;;;;;;;5.60;5.17;;;23.00;77.70;;;;;;4970799;28;20447;-72
2022/06/05 04:03:39;;;;;;;5.23;4.83;;;23.10;77.80;;;;;;4963817;28;20426;-71
2022/06/05 04:06:09;;;;;;;5.77;5.23;;;23.00;77.80;;;;;;4973636;28;20414;-71
2022/06/05 04:08:38;;;;;;;5.83;5.23;;;23.00;77.80;;;;;;4989042;28;20450;-71
2022/06/05 04:11:12;;;;;;;5.47;5.00;;;23.00;77.90;;;;;;4973949;28;20445;-71
2022/06/05 04:13:38;;;;;;;5.57;5.17;;;23.00;78.00;;;;;;4977267;28;20583;-71
2022/06/05 04:16:15;;;;;;;6.40;5.90;;;23.00;78.00;;;;;;4972991;28;20422;-71
2022/06/05 04:18:44;;;;;;;5.97;5.47;;;23.00;78.00;;;;;;4956827;28;20427;-72
2022/06/05 04:21:15;;;;;;;5.70;5.20;;;23.00;78.00;;;;;;4973469;28;20457;-72
2022/06/05 04:23:44;;;;;;;4.93;4.53;;;22.90;78.00;;;;;;4968796;28;20457;-72
2022/06/05 04:26:14;;;;;;;5.33;4.93;;;23.00;78.10;;;;;;4989156;28;20919;-72
2022/06/05 04:28:40;;;;;;;5.10;4.70;;;22.90;78.00;;;;;;4972673;28;20942;-71
2022/06/05 04:31:21;;;;;;;5.70;5.30;;;22.90;78.10;;;;;;4972714;28;20537;-71
2022/06/05 04:33:48;;;;;;;6.90;5.50;;;22.90;78.10;;;;;;4969225;28;20450;-71
2022/06/05 04:36:20;;;;;;;5.50;5.10;;;22.90;78.20;;;;;;4956860;28;20445;-72
2022/06/05 04:38:47;;;;;;;5.53;5.13;;;22.80;78.10;;;;;;4955976;28;20450;-72
2022/06/05 04:41:18;;;;;;;5.53;5.13;;;22.80;78.10;;;;;;4973523;28;20457;-71
2022/06/05 04:43:44;;;;;;;5.40;5.00;;;22.80;78.10;;;;;;4971910;28;20444;-71
2022/06/05 04:46:11;;;;;;;5.40;5.00;;;22.80;78.10;;;;;;4973920;28;20430;-71
2022/06/05 04:48:40;;;;;;;5.27;4.87;;;22.80;78.20;;;;;;4973821;28;20420;-71
2022/06/05 04:51:08;;;;;;;5.13;4.73;;;22.80;78.20;;;;;;4972116;28;20470;-72
2022/06/05 04:53:37;;;;;;;5.93;5.37;;;22.80;78.30;;;;;;4971766;28;20572;-71
2022/06/05 04:56:07;;;;;;;6.23;5.73;;;22.80;78.30;;;;;;4973359;28;20916;-71
2022/06/05 04:58:38;;;;;;;5.70;5.30;;;22.80;78.40;;;;;;4972322;28;20434;-71
2022/06/05 05:01:11;;;;;;;5.27;4.87;;;22.70;78.30;;;;;;4971834;28;20456;-71
2022/06/05 05:03:39;;;;;;;5.90;5.40;;;22.70;78.30;;;;;;4973169;28;20998;-72
2022/06/05 05:06:11;;;;;;;5.60;5.20;;;22.70;78.30;;;;;;4956594;28;20521;-71
2022/06/05 05:08:39;;;;;;;5.40;4.90;;;22.70;78.30;;;;;;4963150;28;20488;-72
2022/06/05 05:11:10;;;;;;;6.53;5.77;;;22.70;78.30;;;;;;4987306;28;20476;-71
2022/06/05 05:13:36;;;;;;;4.80;4.40;;;22.70;78.30;;;;;;4988452;28;20989;-71
2022/06/05 05:16:05;;;;;;;5.57;5.00;;;22.70;78.40;;;;;;4988044;28;20397;-71
2022/06/05 05:18:31;;;;;;;5.53;5.13;;;22.70;78.40;;;;;;4988372;28;20423;-71
2022/06/05 05:21:16;;;;;;;5.57;5.17;;;22.70;78.40;;;;;;4983452;28;20812;-71
2022/06/05 05:23:47;;;;;;;5.20;4.80;;;22.70;78.40;;;;;;4953043;29;20461;-71
2022/06/05 05:26:23;;;;;;;5.47;4.93;;;22.70;78.40;;;;;;4953024;29;20457;-72
2022/06/05 05:28:50;;;;;;;5.33;4.93;;;22.70;78.50;;;;;;4936965;29;20465;-71
2022/06/05 05:31:22;;;;;;;5.40;5.00;;;22.60;78.30;;;;;;5034748;22;20467;-75
2022/06/05 05:33:49;;;;;;;5.53;5.13;;;22.60;78.30;;;;;;5031965;28;20459;-75
2022/06/05 05:36:20;;;;;;;5.10;4.70;;;22.60;78.30;;;;;;5031043;28;20954;-75
2022/06/05 05:44:17;;;;;;;5.00;4.60;;;22.60;78.40;;;;;;5015750;28;20418;-75
2022/06/05 05:46:44;;;;;;;5.47;5.03;;;22.60;78.50;;;;;;5011307;28;20396;-75
2022/06/05 05:49:14;;;;;;;6.87;4.90;;;22.60;78.50;;;;;;5011475;28;21052;-75
2022/06/05 05:51:40;;;;;;;5.70;5.30;;;22.60;78.50;;;;;;5010981;28;20436;-75
2022/06/05 05:54:07;;;;;;;5.17;4.77;;;22.60;78.50;;;;;;5026675;28;20514;-75
2022/06/05 05:56:33;;;;;;;4.83;4.50;;;22.60;78.60;;;;;;4999861;28;20448;-75
2022/06/05 05:59:02;;;;;;;4.73;4.43;;;22.60;78.60;;;;;;5013466;28;20503;-75
2022/06/05 06:01:30;;;;;;;5.40;5.00;;;22.60;78.60;;;;;;5029401;28;20517;-75
2022/06/05 06:03:56;;;;;;;5.23;4.80;;;22.50;78.50;;;;;;5031147;28;20935;-75
2022/06/05 06:06:28;;;;;;;4.80;4.50;;;22.60;78.60;;;;;;5011303;28;20440;-75
2022/06/05 06:08:58;;;;;;;4.90;4.40;;;22.50;78.60;;;;;;5031426;28;20985;-75
2022/06/05 06:11:25;;;;;;;5.20;4.70;;;22.50;78.60;;;;;;5031891;28;20437;-75
2022/06/05 06:13:51;;;;;;;5.33;4.93;;;22.50;78.70;;;;;;5028617;28;20458;-75
2022/06/05 06:16:18;;;;;;;6.23;4.93;;;22.50;78.70;;;;;;5031521;28;20416;-75
2022/06/05 06:18:48;;;;;;;4.83;4.50;;;22.50;78.70;;;;;;5030544;28;20407;-75
2022/06/05 06:21:15;;;;;;;5.30;4.90;;;22.50;78.70;;;;;;5012526;28;21025;-75
2022/06/05 06:23:40;;;;;;;5.70;5.20;;;22.50;78.70;;;;;;5010985;28;20453;-75
2022/06/05 06:26:08;;;;;;;5.57;5.07;;;22.50;78.80;;;;;;5028892;28;20501;-75
2022/06/05 06:28:34;;;;;;;5.50;5.00;;;22.50;78.90;;;;;;5034239;28;20427;-75
2022/06/05 06:31:18;;;;;;;4.97;4.57;;;22.50;79.00;;;;;;5033837;28;20450;-75
2022/06/05 06:33:48;;;;;;;5.10;4.70;;;22.50;79.00;;;;;;5046959;28;20458;-75
2022/06/05 06:36:20;;;;;;;5.47;4.97;;;22.50;79.00;;;;;;5030438;28;20519;-75
2022/06/05 06:38:47;;;;;;;5.43;5.00;;;22.50;79.20;;;;;;5049880;28;20620;-74
2022/06/05 06:41:18;;;;;;;5.60;5.20;;;22.50;79.20;;;;;;5001829;28;20442;-75
2022/06/05 06:43:48;;;;;;;5.47;4.97;;;22.50;79.20;;;;;;5019578;28;20454;-75
2022/06/05 06:46:16;;;;;;;5.60;5.20;;;22.50;79.20;;;;;;5032313;28;20558;-75
2022/06/05 06:48:45;;;;;;;5.77;5.33;;;22.50;79.20;;;;;;5020836;28;20467;-75
2022/06/05 06:51:15;;;;;;;6.20;5.50;;;22.40;79.20;;;;;;5033632;28;20926;-75
2022/06/05 06:53:42;;;;;;;6.07;5.47;;;22.40;79.20;;;;;;5033358;28;20451;-75
2022/06/05 06:56:12;;;;;;;5.60;5.20;;;22.40;79.30;;;;;;5033591;28;20422;-75
2022/06/05 06:58:42;;;;;;;5.20;4.80;;;22.40;79.50;;;;;;5024373;28;20425;-75
2022/06/05 07:01:11;;;;;;;6.10;5.53;;;22.40;79.60;;;;;;5033886;28;20504;-75
2022/06/05 07:03:42;;;;;;;5.23;4.83;;;22.40;79.70;;;;;;5015138;28;20432;-75
2022/06/05 07:06:13;;;;;;;5.87;5.37;;;22.40;79.80;;;;;;5015192;28;20447;-75
2022/06/05 07:08:42;;;;;;;5.47;5.07;;;22.40;80.00;;;;;;5022283;28;20909;-74
2022/06/05 07:11:14;;;;;;;6.33;5.83;;;22.40;80.10;;;;;;5034334;28;20431;-75
2022/06/05 07:13:41;;;;;;;6.20;5.43;;;22.40;80.20;;;;;;5033250;28;20509;-75
2022/06/05 07:16:10;;;;;;;5.77;5.37;;;22.40;80.10;;;;;;5049833;28;20809;-75
2022/06/05 07:18:39;;;;;;;5.63;5.13;;;22.40;80.20;;;;;;5034593;28;20485;-75
2022/06/05 07:21:15;;;;;;;5.63;5.20;;;22.40;80.20;;;;;;5033034;28;20451;-74
2022/06/05 07:23:44;;;;;;;5.23;4.83;;;22.40;80.30;;;;;;5033199;28;20456;-73
2022/06/05 07:26:12;;;;;;;5.70;5.30;;;22.40;80.30;;;;;;5033490;28;20402;-75
2022/06/05 07:28:39;;;;;;;5.97;5.57;;;22.40;80.40;;;;;;4999997;28;20900;-72
2022/06/05 07:31:06;;;;;;;6.07;5.63;;;22.40;80.50;;;;;;5020200;28;20828;-74
2022/06/05 07:33:36;;;;;;;5.30;4.90;;;22.40;80.60;;;;;;5021898;28;20452;-74
2022/06/05 07:36:07;;;;;;;6.40;5.93;;;22.40;80.70;;;;;;5014418;28;20405;-74
2022/06/05 07:38:36;;;;;;;5.70;5.20;;;22.40;80.80;;;;;;5019716;28;20416;-74
2022/06/05 07:41:04;;;;;;;6.57;6.07;;;22.40;80.70;;;;;;5032454;28;20423;-74
2022/06/05 07:43:34;;;;;;;5.87;5.47;;;22.40;80.70;;;;;;5022855;28;20428;-74
2022/06/05 07:46:06;;;;;;;5.60;5.20;;;22.40;80.70;;;;;;5028286;28;20415;-74
2022/06/05 07:48:35;;;;;;;6.17;5.57;;;22.40;80.80;;;;;;5022536;28;20427;-73
2022/06/05 07:56:39;;;;;;;6.20;5.70;;;22.40;81.10;;;;;;5012879;28;20412;-73
2022/06/05 07:59:07;;;;;;;6.33;5.83;;;22.40;81.10;;;;;;5015881;28;20420;-74
2022/06/05 08:01:36;;;;;;;5.97;5.47;;;22.40;81.20;;;;;;5028944;28;20460;-73
2022/06/05 08:04:04;;;;;;;6.63;5.97;;;22.40;81.20;;;;;;5012552;28;20408;-73
2022/06/05 08:06:34;;;;;;;5.50;5.10;;;22.40;81.30;;;;;;5030177;28;20802;-73
2022/06/05 08:09:07;;;;;;;6.57;5.93;;;22.40;81.30;;;;;;5031957;28;20489;-73
2022/06/05 08:11:36;;;;;;;6.80;6.30;;;22.40;81.50;;;;;;5028115;28;20441;-74
2022/06/05 08:14:03;;;;;;;6.53;6.00;;;22.40;81.40;;;;;;5015374;28;20459;-73
2022/06/05 08:16:32;;;;;;;6.20;5.70;;;22.40;81.40;;;;;;5013783;28;20484;-74
2022/06/05 08:18:58;;;;;;;5.70;5.30;;;22.40;81.50;;;;;;5011962;28;20777;-74
2022/06/05 08:21:26;;;;;;;7.13;5.40;;;22.40;81.60;;;;;;5026968;28;20502;-74
2022/06/05 08:23:52;;;;;;;6.60;6.00;;;22.40;81.60;;;;;;5012138;28;20425;-73
2022/06/05 08:26:21;;;;;;;7.00;6.40;;;22.40;81.50;;;;;;5029866;28;20831;-73
2022/06/05 08:28:54;;;;;;;6.30;5.80;;;22.40;81.40;;;;;;5031866;28;20562;-74
2022/06/05 08:31:22;;;;;;;6.37;5.87;;;22.40;81.30;;;;;;5038371;28;20463;-74
2022/06/05 08:33:48;;;;;;;6.40;5.90;;;22.40;81.50;;;;;;5011601;28;20553;-73
2022/06/05 08:36:15;;;;;;;6.70;6.20;;;22.40;81.40;;;;;;5029508;28;20453;-73
2022/06/05 08:41:33;;;;;;;6.47;5.97;;;22.40;81.40;;;;;;5019677;28;20856;-74
2022/06/05 08:44:21;;;;;;;6.67;6.17;;;22.50;81.70;;;;;;4998325;28;20419;-73
2022/06/05 08:46:56;;;;;;;6.77;6.27;;;22.50;81.80;;;;;;5014871;28;20526;-74
2022/06/05 08:49:37;;;;;;;7.30;6.30;;;22.50;81.80;;;;;;5028842;28;20455;-73
2022/06/05 08:52:14;;;;;;;6.43;5.93;;;22.50;81.70;;;;;;5023342;28;20851;-73
2022/06/05 08:55:04;;;;;;;6.43;5.93;;;22.50;81.80;;;;;;5030663;28;20457;-73
2022/06/05 08:57:41;;;;;;;6.70;6.20;;;22.50;81.80;;;;;;4987296;28;20928;-73
2022/06/05 09:00:17;;;;;;;7.00;6.47;;;22.50;82.00;;;;;;5011527;28;20457;-74
2022/06/05 09:02:48;;;;;;;7.00;6.30;;;22.50;82.30;;;;;;5027615;28;20455;-74
2022/06/05 09:05:30;;;;;;;6.60;6.17;;;22.50;82.30;;;;;;5014191;28;20434;-73
2022/06/05 09:07:59;;;;;;;6.60;6.10;;;22.60;82.60;;;;;;4995374;28;20449;-74
2022/06/05 09:10:36;;;;;;;6.40;5.90;;;22.60;82.50;;;;;;5030331;28;20466;-74
2022/06/05 09:13:12;;;;;;;6.80;6.30;;;22.60;82.60;;;;;;5030916;28;20512;-74
2022/06/05 09:15:50;;;;;;;6.50;5.90;;;22.60;82.60;;;;;;5014566;28;20423;-73
2022/06/05 09:18:22;;;;;;;6.17;5.70;;;22.60;82.60;;;;;;5014086;28;20479;-74
2022/06/05 09:20:51;;;;;;;6.73;6.23;;;22.60;82.50;;;;;;5020842;28;20456;-74
2022/06/05 09:23:39;;;;;;;7.60;7.03;;;22.60;82.80;;;;;;5011242;28;20401;-74
2022/06/05 09:26:22;;;;;;;6.70;6.20;;;22.60;83.40;;;;;;5012741;28;20438;-73
2022/06/05 09:28:55;;;;;;;6.97;6.47;;;22.60;84.10;;;;;;5010811;28;20495;-73
2022/06/05 09:31:52;;;;;;;6.73;6.23;;;22.60;83.40;;;;;;5024511;28;20509;-74
2022/06/05 09:34:28;;;;;;;6.87;6.37;;;22.60;83.40;;;;;;5019991;28;20492;-74
2022/06/05 09:37:08;;;;;;;7.00;6.50;;;22.60;83.40;;;;;;5018100;28;20423;-73
2022/06/05 09:40:08;;;;;;;7.77;6.77;;;22.60;83.30;;;;;;5004437;28;20450;-74
2022/06/05 09:42:36;;;;;;;7.13;6.53;;;22.60;83.60;;;;;;4979551;28;20443;-73
2022/06/05 09:45:05;;;;;;;7.07;6.47;;;22.60;83.60;;;;;;4995146;28;20441;-73
2022/06/05 09:47:54;;;;;;;7.07;6.57;;;22.60;83.70;;;;;;5022647;28;20943;-74
2022/06/05 09:50:26;;;;;;;7.10;6.40;;;22.60;83.70;;;;;;5035128;28;20454;-74
2022/06/05 09:52:53;;;;;;;7.80;7.20;;;22.60;84.00;;;;;;5029627;28;20447;-74
2022/06/05 09:55:35;;;;;;;9.07;8.37;;;22.60;84.00;;;;;;5031795;28;20490;-74
2022/06/05 09:58:25;;;;;;;8.33;7.73;;;22.60;84.20;;;;;;5029683;28;20546;-73
2022/06/05 10:00:57;;;;;;;9.07;8.40;;;22.70;84.50;;;;;;4978885;28;20444;-74
2022/06/05 10:03:32;;;;;;;7.73;7.13;;;22.70;84.60;;;;;;5034557;28;20419;-74
2022/06/05 10:06:22;;;;;;;7.70;7.10;;;22.60;85.40;;;;;;5001063;28;20831;-74
2022/06/05 10:08:54;;;;;;;7.63;6.93;;;22.70;86.50;;;;;;5032120;28;20439;-74
2022/06/05 10:11:23;;;;;;;9.47;8.67;;;22.70;87.20;;;;;;5031584;28;20449;-74
2022/06/05 10:13:57;;;;;;;9.23;8.43;;;22.70;88.10;;;;;;5015580;28;20859;-72
2022/06/05 10:16:34;;;;;;;9.10;8.27;;;22.60;90.10;;;;;;4996482;28;20456;-71
2022/06/05 10:19:26;;;;;;;8.60;8.00;;;22.60;90.20;;;;;;5035330;28;20509;-72
2022/06/05 10:22:08;;;;;;;9.07;8.30;;;22.60;90.00;;;;;;5033599;28;20964;-72
2022/06/05 10:24:59;;;;;;;8.03;7.43;;;22.60;90.10;;;;;;5035727;28;20409;-72
2022/06/05 10:27:29;;;;;;;8.67;7.97;;;22.60;90.30;;;;;;5034427;28;20457;-72
2022/06/05 10:30:02;;;;;;;9.07;8.20;;;22.60;90.40;;;;;;5022559;28;20536;-72
2022/06/05 10:32:45;;;;;;;8.23;7.63;;;22.60;90.30;;;;;;5008690;28;20489;-72
2022/06/05 10:35:34;;;;;;;9.53;8.73;;;22.60;90.20;;;;;;5034363;28;20434;-72
2022/06/05 10:38:22;;;;;;;8.80;8.00;;;22.60;90.10;;;;;;5039260;28;20811;-72
2022/06/05 10:40:54;;;;;;;8.37;7.60;;;22.60;90.00;;;;;;5017876;28;20466;-72
2022/06/05 10:43:28;;;;;;;8.23;7.50;;;22.60;89.90;;;;;;5034195;28;20427;-72
2022/06/05 10:46:07;;;;;;;7.97;7.30;;;22.60;89.60;;;;;;5033982;28;20434;-72
2022/06/05 10:48:50;;;;;;;7.90;7.20;;;22.60;89.50;;;;;;5034246;28;20793;-72
2022/06/05 10:51:22;;;;;;;7.93;7.30;;;22.60;89.60;;;;;;5050276;28;20438;-72
2022/06/05 10:53:59;;;;;;;7.43;6.93;;;22.60;89.90;;;;;;5035082;28;20474;-72
2022/06/05 10:56:33;;;;;;;8.47;7.77;;;22.60;90.00;;;;;;5013990;28;20463;-72
2022/06/05 10:59:17;;;;;;;8.93;8.03;;;22.60;90.10;;;;;;5014982;28;20469;-73
2022/06/05 11:02:01;;;;;;;8.83;8.17;;;22.60;90.20;;;;;;5010442;28;20880;-73
2022/06/05 11:04:45;;;;;;;8.67;7.93;;;22.60;90.30;;;;;;5014701;28;20401;-73
2022/06/05 11:07:37;;;;;;;9.10;8.40;;;22.60;90.40;;;;;;5025419;28;20510;-71
2022/06/05 11:14:09;;;;;;;8.67;7.87;;;22.60;90.80;;;;;;5028067;28;20470;-73
2022/06/05 11:16:56;;;;;;;9.43;8.63;;;22.60;91.10;;;;;;5028150;28;20429;-73
2022/06/05 11:19:53;;;;;;;8.40;7.67;;;22.60;91.40;;;;;;5014889;28;20847;-74
2022/06/05 11:22:21;;;;;;;8.97;8.27;;;22.60;91.30;;;;;;5022432;28;20452;-73
2022/06/05 11:24:51;;;;;;;8.50;7.80;;;22.60;91.50;;;;;;5050293;28;20967;-74
2022/06/05 11:27:27;;;;;;;9.43;8.73;;;22.60;91.80;;;;;;5014437;28;20924;-71
2022/06/05 11:30:21;;;;;;;8.87;8.07;;;22.60;92.00;;;;;;5012701;28;20467;-72
2022/06/05 11:33:14;;;;;;;9.40;8.70;;;22.60;92.10;;;;;;5024625;28;20813;-72
2022/06/05 11:36:05;;;;;;;9.83;9.03;;;22.60;92.20;;;;;;5032971;28;20521;-74
2022/06/05 11:39:19;;;;;;;9.47;8.73;;;22.60;92.40;;;;;;4998707;28;20471;-72
2022/06/05 11:42:05;;;;;;;8.70;8.00;;;22.60;92.60;;;;;;4982707;28;20462;-73
2022/06/05 11:45:04;;;;;;;8.63;7.93;;;22.60;92.70;;;;;;5012921;28;20517;-73
2022/06/05 11:47:36;;;;;;;9.50;8.73;;;22.60;92.80;;;;;;5021239;28;20533;-73
2022/06/05 11:50:18;;;;;;;8.93;8.33;;;22.60;93.00;;;;;;5032705;28;20439;-75
2022/06/05 11:53:04;;;;;;;8.93;8.20;;;22.60;93.10;;;;;;5017995;28;20458;-75
2022/06/05 11:55:42;;;;;;;8.70;8.00;;;22.60;93.20;;;;;;5016103;28;20508;-72
2022/06/05 11:58:18;;;;;;;8.73;7.87;;;22.60;93.50;;;;;;5029268;28;20389;-73
2022/06/05 12:00:55;;;;;;;9.23;8.43;;;22.60;93.50;;;;;;5013675;28;20579;-71
2022/06/05 12:03:29;;;;;;;9.57;8.87;;;22.60;93.60;;;;;;5012610;28;20506;-71
2022/06/05 12:06:01;;;;;;;9.57;8.73;;;22.60;93.70;;;;;;4995964;28;20941;-71
2022/06/05 12:08:30;;;;;;;9.77;9.00;;;22.60;93.70;;;;;;5013412;28;20415;-72
2022/06/05 12:10:59;;;;;;;8.93;8.33;;;22.60;93.60;;;;;;5029275;28;20455;-72
2022/06/05 12:13:30;;;;;;;8.73;8.00;;;22.60;93.60;;;;;;5032343;28;20467;-75
2022/06/05 12:16:09;;;;;;;7.80;7.20;;;22.60;93.50;;;;;;5016200;28;20489;-73
2022/06/05 12:18:53;;;;;;;8.10;7.50;;;22.60;93.30;;;;;;5033187;28;20464;-72
2022/06/05 12:21:25;;;;;;;8.50;7.80;;;22.60;93.10;;;;;;5015759;28;20443;-74
2022/06/05 12:24:00;;;;;;;8.83;8.13;;;22.60;92.80;;;;;;5015153;28;20976;-76
2022/06/05 12:26:47;;;;;;;8.80;8.10;;;22.60;92.70;;;;;;4989293;28;20419;-74
2022/06/05 12:29:16;;;;;;;9.20;8.50;;;22.60;92.90;;;;;;5022771;28;20427;-75
2022/06/05 12:31:58;;;;;;;8.50;7.83;;;22.60;92.90;;;;;;4998968;28;20462;-73
2022/06/05 12:34:29;;;;;;;8.50;7.90;;;22.70;93.20;;;;;;5032837;28;20439;-74
2022/06/05 12:37:17;;;;;;;8.80;8.10;;;22.70;93.60;;;;;;5018855;28;20499;-74
2022/06/05 12:39:52;;;;;;;8.87;8.17;;;22.70;93.70;;;;;;5023159;28;20482;-73
2022/06/05 12:42:25;;;;;;;9.43;8.70;;;22.70;93.80;;;;;;5031605;28;20434;-75
2022/06/05 12:44:53;;;;;;;8.33;7.67;;;22.70;93.80;;;;;;5031911;28;20498;-74
2022/06/05 12:47:59;;;;;;;8.10;7.50;;;22.80;94.30;;;;;;5032211;28;20419;-75
2022/06/05 12:51:03;;;;;;;8.93;8.23;;;22.80;94.30;;;;;;5012421;28;20439;-73
2022/06/05 12:53:38;;;;;;;8.50;7.90;;;22.80;94.20;;;;;;4996493;28;20486;-73
2022/06/05 12:56:38;;;;;;;9.00;8.40;;;22.80;94.10;;;;;;4980323;28;20457;-73
2022/06/05 12:59:28;;;;;;;8.20;7.60;;;22.80;94.40;;;;;;5013375;28;20919;-74
2022/06/05 13:02:05;;;;;;;9.40;8.70;;;22.80;94.40;;;;;;5031106;28;20447;-73
2022/06/05 13:04:51;;;;;;;9.40;8.70;;;22.90;94.30;;;;;;5031790;28;20406;-72
2022/06/05 13:07:28;;;;;;;8.37;7.77;;;22.90;94.30;;;;;;5030440;28;20423;-74
2022/06/05 13:10:01;;;;;;;9.43;8.63;;;22.90;94.50;;;;;;5013076;28;20504;-71
2022/06/05 13:12:34;;;;;;;9.10;7.73;;;22.90;94.80;;;;;;5043267;28;20516;-75
2022/06/05 13:15:21;;;;;;;9.10;8.40;;;22.90;94.50;;;;;;5031297;28;21147;-74
2022/06/05 13:17:56;;;;;;;8.77;8.07;;;22.90;94.70;;;;;;5020884;28;20439;-73
2022/06/05 13:20:28;;;;;;;9.33;8.53;;;22.90;94.70;;;;;;5001460;28;20839;-74
2022/06/05 13:23:09;;;;;;;8.47;7.87;;;23.00;94.70;;;;;;5010746;28;20836;-74
2022/06/05 13:25:55;;;;;;;9.80;9.00;;;22.90;94.60;;;;;;5012246;28;20456;-74
2022/06/05 13:28:45;;;;;;;9.43;8.30;;;23.00;94.80;;;;;;5020384;28;20449;-74
2022/06/05 13:31:17;;;;;;;9.73;9.03;;;22.90;94.90;;;;;;5030945;28;20479;-74
2022/06/05 13:33:46;;;;;;;9.00;8.30;;;23.00;95.10;;;;;;5013577;28;20459;-74
2022/06/05 13:36:29;;;;;;;8.53;7.93;;;23.00;95.10;;;;;;5031937;28;20896;-74
2022/06/05 13:39:02;;;;;;;9.40;8.70;;;23.00;95.10;;;;;;5050239;28;20947;-74
2022/06/05 13:41:38;;;;;;;8.87;8.17;;;23.00;94.80;;;;;;5098842;23;20521;-74
2022/06/05 13:44:20;;;;;;;8.83;8.20;;;23.00;94.80;;;;;;5034497;28;20537;-75
2022/06/05 13:47:04;;;;;;;8.40;7.80;;;23.00;94.70;;;;;;5024397;28;20422;-74